sensor_id;sensor_type;location;lat;lon;timestamp;P1;durP1;ratioP1;P2;durP2;ratioP2
6679;SDS011;3376;42.664;23.346;2024-02-28T00:00:07;18.87;;;14.47;;
6679;SDS011;3376;42.664;23.346;2024-02-28T00:03:33;17.13;;;13.53;;
6679;SDS011;3376;42.664;23.346;2024-02-28T00:07:00;17.43;;;13.63;;
6679;SDS011;3376;42.664;23.346;2024-02-28T00:10:25;25.67;;;14.20;;
6679;SDS011;3376;42.664;23.346;2024-02-28T00:13:50;18.00;;;13.30;;
6679;SDS011;3376;42.664;23.346;2024-02-28T00:17:16;15.20;;;13.07;;
6679;SDS011;3376;42.664;23.346;2024-02-28T00:20:41;17.47;;;14.00;;
6679;SDS011;3376;42.664;23.346;2024-02-28T00:24:10;20.37;;;12.03;;
6679;SDS011;3376;42.664;23.346;2024-02-28T00:27:36;22.20;;;14.43;;
6679;SDS011;3376;42.664;23.346;2024-02-28T00:31:02;14.50;;;13.00;;
6679;SDS011;3376;42.664;23.346;2024-02-28T00:34:27;13.73;;;12.03;;
6679;SDS011;3376;42.664;23.346;2024-02-28T00:37:53;13.73;;;12.33;;
6679;SDS011;3376;42.664;23.346;2024-02-28T00:41:20;18.90;;;14.30;;
6679;SDS011;3376;42.664;23.346;2024-02-28T00:44:45;14.97;;;13.40;;
6679;SDS011;3376;42.664;23.346;2024-02-28T00:48:10;20.50;;;12.77;;
6679;SDS011;3376;42.664;23.346;2024-02-28T00:51:36;19.70;;;14.03;;
6679;SDS011;3376;42.664;23.346;2024-02-28T00:55:01;17.27;;;13.60;;
6679;SDS011;3376;42.664;23.346;2024-02-28T00:58:29;14.33;;;12.90;;
6679;SDS011;3376;42.664;23.346;2024-02-28T01:01:54;18.97;;;12.17;;
6679;SDS011;3376;42.664;23.346;2024-02-28T01:05:19;14.97;;;12.10;;
6679;SDS011;3376;42.664;23.346;2024-02-28T01:08:45;14.33;;;12.00;;
6679;SDS011;3376;42.664;23.346;2024-02-28T01:12:10;13.90;;;11.07;;
6679;SDS011;3376;42.664;23.346;2024-02-28T01:15:38;17.90;;;13.43;;
6679;SDS011;3376;42.664;23.346;2024-02-28T01:19:04;20.27;;;14.23;;
6679;SDS011;3376;42.664;23.346;2024-02-28T01:22:30;18.93;;;14.93;;
6679;SDS011;3376;42.664;23.346;2024-02-28T01:25:55;21.33;;;15.00;;
6679;SDS011;3376;42.664;23.346;2024-02-28T01:29:21;23.60;;;15.83;;
6679;SDS011;3376;42.664;23.346;2024-02-28T01:32:47;20.73;;;14.40;;
6679;SDS011;3376;42.664;23.346;2024-02-28T01:36:13;18.47;;;12.73;;
6679;SDS011;3376;42.664;23.346;2024-02-28T01:39:38;19.27;;;12.27;;
6679;SDS011;3376;42.664;23.346;2024-02-28T01:43:06;13.00;;;11.77;;
6679;SDS011;3376;42.664;23.346;2024-02-28T01:46:32;17.63;;;11.60;;
6679;SDS011;3376;42.664;23.346;2024-02-28T01:49:59;15.13;;;12.10;;
6679;SDS011;3376;42.664;23.346;2024-02-28T01:53:24;12.43;;;10.90;;
6679;SDS011;3376;42.664;23.346;2024-02-28T01:56:51;13.63;;;12.20;;
6679;SDS011;3376;42.664;23.346;2024-02-28T02:00:17;12.40;;;11.20;;
6679;SDS011;3376;42.664;23.346;2024-02-28T02:03:43;14.53;;;11.57;;
6679;SDS011;3376;42.664;23.346;2024-02-28T02:07:10;15.40;;;12.13;;
6679;SDS011;3376;42.664;23.346;2024-02-28T02:10:36;22.10;;;14.30;;
6679;SDS011;3376;42.664;23.346;2024-02-28T02:14:02;13.43;;;11.97;;
6679;SDS011;3376;42.664;23.346;2024-02-28T02:17:27;13.60;;;10.93;;
6679;SDS011;3376;42.664;23.346;2024-02-28T02:20:54;13.77;;;12.33;;
6679;SDS011;3376;42.664;23.346;2024-02-28T02:24:25;14.50;;;12.33;;
6679;SDS011;3376;42.664;23.346;2024-02-28T02:27:51;13.63;;;12.23;;
6679;SDS011;3376;42.664;23.346;2024-02-28T02:31:16;12.60;;;11.37;;
6679;SDS011;3376;42.664;23.346;2024-02-28T02:34:42;13.87;;;10.97;;
6679;SDS011;3376;42.664;23.346;2024-02-28T02:38:07;12.07;;;11.00;;
6679;SDS011;3376;42.664;23.346;2024-02-28T02:41:34;13.97;;;10.93;;
6679;SDS011;3376;42.664;23.346;2024-02-28T02:45:00;12.17;;;11.03;;
6679;SDS011;3376;42.664;23.346;2024-02-28T02:48:25;13.30;;;12.00;;
6679;SDS011;3376;42.664;23.346;2024-02-28T02:51:51;12.77;;;11.40;;
6679;SDS011;3376;42.664;23.346;2024-02-28T02:55:16;14.77;;;12.00;;
6679;SDS011;3376;42.664;23.346;2024-02-28T02:58:43;13.53;;;12.20;;
6679;SDS011;3376;42.664;23.346;2024-02-28T03:02:08;14.70;;;11.63;;
6679;SDS011;3376;42.664;23.346;2024-02-28T03:05:34;14.03;;;11.83;;
6679;SDS011;3376;42.664;23.346;2024-02-28T03:08:59;14.57;;;11.73;;
6679;SDS011;3376;42.664;23.346;2024-02-28T03:12:25;21.10;;;12.47;;
6679;SDS011;3376;42.664;23.346;2024-02-28T03:15:52;14.90;;;11.83;;
6679;SDS011;3376;42.664;23.346;2024-02-28T03:19:17;17.70;;;13.67;;
6679;SDS011;3376;42.664;23.346;2024-02-28T03:22:43;17.40;;;11.97;;
6679;SDS011;3376;42.664;23.346;2024-02-28T03:26:08;15.27;;;11.80;;
6679;SDS011;3376;42.664;23.346;2024-02-28T03:29:34;16.60;;;12.07;;
6679;SDS011;3376;42.664;23.346;2024-02-28T03:33:01;22.00;;;13.60;;
6679;SDS011;3376;42.664;23.346;2024-02-28T03:36:27;13.10;;;11.80;;
6679;SDS011;3376;42.664;23.346;2024-02-28T03:39:52;21.53;;;14.70;;
6679;SDS011;3376;42.664;23.346;2024-02-28T03:43:18;21.00;;;14.50;;
6679;SDS011;3376;42.664;23.346;2024-02-28T03:46:43;14.73;;;11.57;;
6679;SDS011;3376;42.664;23.346;2024-02-28T03:50:10;16.07;;;12.60;;
6679;SDS011;3376;42.664;23.346;2024-02-28T03:53:35;16.57;;;13.10;;
6679;SDS011;3376;42.664;23.346;2024-02-28T03:57:01;20.67;;;14.53;;
6679;SDS011;3376;42.664;23.346;2024-02-28T04:00:26;20.40;;;14.07;;
6679;SDS011;3376;42.664;23.346;2024-02-28T04:03:52;28.43;;;15.90;;
6679;SDS011;3376;42.664;23.346;2024-02-28T04:07:19;21.60;;;14.30;;
6679;SDS011;3376;42.664;23.346;2024-02-28T04:10:44;23.33;;;15.07;;
6679;SDS011;3376;42.664;23.346;2024-02-28T04:14:10;18.33;;;14.47;;
6679;SDS011;3376;42.664;23.346;2024-02-28T04:17:36;20.17;;;15.03;;
6679;SDS011;3376;42.664;23.346;2024-02-28T04:21:02;16.47;;;12.33;;
6679;SDS011;3376;42.664;23.346;2024-02-28T04:24:29;14.53;;;12.50;;
6679;SDS011;3376;42.664;23.346;2024-02-28T04:27:54;16.80;;;13.17;;
6679;SDS011;3376;42.664;23.346;2024-02-28T04:31:19;18.50;;;13.27;;
6679;SDS011;3376;42.664;23.346;2024-02-28T04:34:45;20.47;;;14.43;;
6679;SDS011;3376;42.664;23.346;2024-02-28T04:38:10;19.40;;;15.47;;
6679;SDS011;3376;42.664;23.346;2024-02-28T04:41:37;19.47;;;12.37;;
6679;SDS011;3376;42.664;23.346;2024-02-28T04:45:03;18.00;;;13.43;;
6679;SDS011;3376;42.664;23.346;2024-02-28T04:48:29;19.30;;;13.53;;
6679;SDS011;3376;42.664;23.346;2024-02-28T04:51:54;19.73;;;13.60;;
6679;SDS011;3376;42.664;23.346;2024-02-28T04:55:20;28.30;;;15.73;;
6679;SDS011;3376;42.664;23.346;2024-02-28T04:58:47;19.90;;;15.13;;
6679;SDS011;3376;42.664;23.346;2024-02-28T05:02:13;17.60;;;14.67;;
6679;SDS011;3376;42.664;23.346;2024-02-28T05:05:38;25.23;;;15.50;;
6679;SDS011;3376;42.664;23.346;2024-02-28T05:09:04;19.27;;;16.27;;
6679;SDS011;3376;42.664;23.346;2024-02-28T05:12:30;21.37;;;15.90;;
6679;SDS011;3376;42.664;23.346;2024-02-28T05:15:57;20.93;;;17.60;;
6679;SDS011;3376;42.664;23.346;2024-02-28T05:19:22;27.30;;;16.57;;
6679;SDS011;3376;42.664;23.346;2024-02-28T05:22:48;22.07;;;15.37;;
6679;SDS011;3376;42.664;23.346;2024-02-28T05:26:13;30.00;;;15.73;;
6679;SDS011;3376;42.664;23.346;2024-02-28T05:29:39;23.03;;;17.07;;
6679;SDS011;3376;42.664;23.346;2024-02-28T05:33:06;27.50;;;17.07;;
6679;SDS011;3376;42.664;23.346;2024-02-28T05:36:31;26.53;;;16.80;;
6679;SDS011;3376;42.664;23.346;2024-02-28T05:39:57;30.60;;;21.77;;
6679;SDS011;3376;42.664;23.346;2024-02-28T05:43:22;31.17;;;21.10;;
6679;SDS011;3376;42.664;23.346;2024-02-28T05:46:49;23.77;;;15.93;;
6679;SDS011;3376;42.664;23.346;2024-02-28T05:50:16;29.50;;;17.63;;
6679;SDS011;3376;42.664;23.346;2024-02-28T05:53:42;29.43;;;18.73;;
6679;SDS011;3376;42.664;23.346;2024-02-28T05:57:08;30.23;;;17.67;;
6679;SDS011;3376;42.664;23.346;2024-02-28T06:00:34;26.77;;;17.37;;
6679;SDS011;3376;42.664;23.346;2024-02-28T06:03:59;24.50;;;16.53;;
6679;SDS011;3376;42.664;23.346;2024-02-28T06:07:26;27.10;;;17.00;;
6679;SDS011;3376;42.664;23.346;2024-02-28T06:10:52;24.57;;;18.50;;
6679;SDS011;3376;42.664;23.346;2024-02-28T06:14:17;30.83;;;17.53;;
6679;SDS011;3376;42.664;23.346;2024-02-28T06:17:42;23.07;;;17.90;;
6679;SDS011;3376;42.664;23.346;2024-02-28T06:21:08;29.47;;;17.50;;
6679;SDS011;3376;42.664;23.346;2024-02-28T06:24:35;31.67;;;17.50;;
6679;SDS011;3376;42.664;23.346;2024-02-28T06:28:00;32.80;;;17.93;;
6679;SDS011;3376;42.664;23.346;2024-02-28T06:31:29;32.63;;;18.10;;
6679;SDS011;3376;42.664;23.346;2024-02-28T06:34:55;22.07;;;17.30;;
6679;SDS011;3376;42.664;23.346;2024-02-28T06:38:20;23.63;;;16.90;;
6679;SDS011;3376;42.664;23.346;2024-02-28T06:41:47;24.47;;;18.30;;
6679;SDS011;3376;42.664;23.346;2024-02-28T06:45:12;24.93;;;17.20;;
6679;SDS011;3376;42.664;23.346;2024-02-28T06:48:38;20.90;;;16.87;;
6679;SDS011;3376;42.664;23.346;2024-02-28T06:52:03;24.03;;;16.80;;
6679;SDS011;3376;42.664;23.346;2024-02-28T06:55:29;22.03;;;14.67;;
6679;SDS011;3376;42.664;23.346;2024-02-28T06:58:56;17.20;;;15.03;;
6679;SDS011;3376;42.664;23.346;2024-02-28T07:02:21;23.97;;;17.67;;
6679;SDS011;3376;42.664;23.346;2024-02-28T07:05:47;22.30;;;17.03;;
6679;SDS011;3376;42.664;23.346;2024-02-28T07:09:12;23.50;;;17.33;;
6679;SDS011;3376;42.664;23.346;2024-02-28T07:12:38;22.73;;;17.57;;
6679;SDS011;3376;42.664;23.346;2024-02-28T07:16:06;22.13;;;16.70;;
6679;SDS011;3376;42.664;23.346;2024-02-28T07:19:32;23.30;;;15.83;;
6679;SDS011;3376;42.664;23.346;2024-02-28T07:22:57;25.03;;;15.93;;
6679;SDS011;3376;42.664;23.346;2024-02-28T07:26:23;18.40;;;16.30;;
6679;SDS011;3376;42.664;23.346;2024-02-28T07:29:48;27.90;;;16.40;;
6679;SDS011;3376;42.664;23.346;2024-02-28T07:33:15;22.37;;;17.43;;
6679;SDS011;3376;42.664;23.346;2024-02-28T07:36:40;20.63;;;17.67;;
6679;SDS011;3376;42.664;23.346;2024-02-28T07:40:06;23.63;;;17.27;;
6679;SDS011;3376;42.664;23.346;2024-02-28T07:43:32;31.50;;;20.53;;
6679;SDS011;3376;42.664;23.346;2024-02-28T07:46:58;29.87;;;18.27;;
6679;SDS011;3376;42.664;23.346;2024-02-28T07:50:25;20.10;;;17.97;;
6679;SDS011;3376;42.664;23.346;2024-02-28T07:53:50;34.87;;;19.37;;
6679;SDS011;3376;42.664;23.346;2024-02-28T07:57:16;22.33;;;17.87;;
6679;SDS011;3376;42.664;23.346;2024-02-28T08:00:41;26.87;;;20.50;;
6679;SDS011;3376;42.664;23.346;2024-02-28T08:04:07;23.40;;;19.00;;
6679;SDS011;3376;42.664;23.346;2024-02-28T08:07:34;27.53;;;20.13;;
6679;SDS011;3376;42.664;23.346;2024-02-28T08:11:00;26.77;;;19.13;;
6679;SDS011;3376;42.664;23.346;2024-02-28T08:14:25;27.83;;;19.77;;
6679;SDS011;3376;42.664;23.346;2024-02-28T08:17:50;22.27;;;18.70;;
6679;SDS011;3376;42.664;23.346;2024-02-28T08:21:16;22.30;;;19.37;;
6679;SDS011;3376;42.664;23.346;2024-02-28T08:24:43;24.17;;;18.20;;
6679;SDS011;3376;42.664;23.346;2024-02-28T08:28:08;19.33;;;17.57;;
6679;SDS011;3376;42.664;23.346;2024-02-28T08:31:39;20.50;;;18.47;;
6679;SDS011;3376;42.664;23.346;2024-02-28T08:35:06;21.80;;;16.47;;
6679;SDS011;3376;42.664;23.346;2024-02-28T08:38:32;18.27;;;16.57;;
6679;SDS011;3376;42.664;23.346;2024-02-28T08:41:59;22.90;;;17.67;;
6679;SDS011;3376;42.664;23.346;2024-02-28T08:45:25;18.13;;;16.23;;
6679;SDS011;3376;42.664;23.346;2024-02-28T08:48:50;19.03;;;16.93;;
6679;SDS011;3376;42.664;23.346;2024-02-28T08:52:15;18.80;;;17.00;;
6679;SDS011;3376;42.664;23.346;2024-02-28T08:55:41;19.93;;;18.33;;
6679;SDS011;3376;42.664;23.346;2024-02-28T08:59:08;23.23;;;19.33;;
6679;SDS011;3376;42.664;23.346;2024-02-28T09:02:34;25.20;;;19.47;;
6679;SDS011;3376;42.664;23.346;2024-02-28T09:06:00;20.73;;;17.00;;
6679;SDS011;3376;42.664;23.346;2024-02-28T09:09:25;18.73;;;17.00;;
6679;SDS011;3376;42.664;23.346;2024-02-28T09:12:51;22.53;;;19.73;;
6679;SDS011;3376;42.664;23.346;2024-02-28T09:16:18;21.27;;;19.03;;
6679;SDS011;3376;42.664;23.346;2024-02-28T09:19:43;27.97;;;19.33;;
6679;SDS011;3376;42.664;23.346;2024-02-28T09:23:09;19.77;;;17.80;;
6679;SDS011;3376;42.664;23.346;2024-02-28T09:26:38;20.60;;;18.50;;
6679;SDS011;3376;42.664;23.346;2024-02-28T09:30:05;20.83;;;18.67;;
6679;SDS011;3376;42.664;23.346;2024-02-28T09:33:32;21.70;;;19.30;;
6679;SDS011;3376;42.664;23.346;2024-02-28T09:36:57;22.43;;;19.90;;
6679;SDS011;3376;42.664;23.346;2024-02-28T09:40:23;29.63;;;20.10;;
6679;SDS011;3376;42.664;23.346;2024-02-28T09:43:51;19.10;;;17.37;;
6679;SDS011;3376;42.664;23.346;2024-02-28T09:47:17;28.80;;;19.10;;
6679;SDS011;3376;42.664;23.346;2024-02-28T09:50:44;20.63;;;17.80;;
6679;SDS011;3376;42.664;23.346;2024-02-28T09:54:10;19.87;;;17.83;;
6679;SDS011;3376;42.664;23.346;2024-02-28T09:57:36;20.60;;;16.10;;
6679;SDS011;3376;42.664;23.346;2024-02-28T10:01:04;19.97;;;17.97;;
6679;SDS011;3376;42.664;23.346;2024-02-28T10:04:31;24.53;;;18.37;;
6679;SDS011;3376;42.664;23.346;2024-02-28T10:08:00;24.50;;;17.37;;
6679;SDS011;3376;42.664;23.346;2024-02-28T10:11:25;22.63;;;17.17;;
6679;SDS011;3376;42.664;23.346;2024-02-28T10:14:51;18.90;;;16.83;;
6679;SDS011;3376;42.664;23.346;2024-02-28T10:18:17;19.13;;;17.10;;
6679;SDS011;3376;42.664;23.346;2024-02-28T10:21:42;23.53;;;17.93;;
6679;SDS011;3376;42.664;23.346;2024-02-28T10:25:09;23.73;;;17.60;;
6679;SDS011;3376;42.664;23.346;2024-02-28T10:28:36;21.60;;;16.67;;
6679;SDS011;3376;42.664;23.346;2024-02-28T10:32:01;21.87;;;17.27;;
6679;SDS011;3376;42.664;23.346;2024-02-28T10:35:27;32.43;;;22.43;;
6679;SDS011;3376;42.664;23.346;2024-02-28T10:38:53;27.80;;;16.60;;
6679;SDS011;3376;42.664;23.346;2024-02-28T10:42:23;14.57;;;13.17;;
6679;SDS011;3376;42.664;23.346;2024-02-28T10:45:51;15.83;;;12.33;;
6679;SDS011;3376;42.664;23.346;2024-02-28T10:49:17;16.57;;;11.93;;
6679;SDS011;3376;42.664;23.346;2024-02-28T10:52:43;11.93;;;10.87;;
6679;SDS011;3376;42.664;23.346;2024-02-28T10:56:12;10.50;;;9.70;;
6679;SDS011;3376;42.664;23.346;2024-02-28T10:59:43;10.97;;;9.13;;
6679;SDS011;3376;42.664;23.346;2024-02-28T11:03:11;10.33;;;9.60;;
6679;SDS011;3376;42.664;23.346;2024-02-28T11:06:47;14.80;;;10.50;;
6679;SDS011;3376;42.664;23.346;2024-02-28T11:10:14;8.93;;;8.13;;
6679;SDS011;3376;42.664;23.346;2024-02-28T11:13:50;9.43;;;8.60;;
6679;SDS011;3376;42.664;23.346;2024-02-28T11:17:26;10.67;;;9.43;;
6679;SDS011;3376;42.664;23.346;2024-02-28T11:20:51;12.10;;;11.07;;
6679;SDS011;3376;42.664;23.346;2024-02-28T11:24:22;13.33;;;10.40;;
6679;SDS011;3376;42.664;23.346;2024-02-28T11:27:48;12.20;;;10.37;;
6679;SDS011;3376;42.664;23.346;2024-02-28T11:31:15;11.13;;;10.18;;
6679;SDS011;3376;42.664;23.346;2024-02-28T11:34:41;15.02;;;10.02;;
6679;SDS011;3376;42.664;23.346;2024-02-28T11:38:08;12.18;;;11.00;;
6679;SDS011;3376;42.664;23.346;2024-02-28T11:41:33;10.90;;;9.20;;
6679;SDS011;3376;42.664;23.346;2024-02-28T11:45:00;10.93;;;9.55;;
6679;SDS011;3376;42.664;23.346;2024-02-28T11:48:27;9.77;;;9.07;;
6679;SDS011;3376;42.664;23.346;2024-02-28T11:51:52;10.87;;;8.40;;
6679;SDS011;3376;42.664;23.346;2024-02-28T11:55:18;10.47;;;9.47;;
6679;SDS011;3376;42.664;23.346;2024-02-28T11:58:49;9.03;;;8.33;;
6679;SDS011;3376;42.664;23.346;2024-02-28T12:02:17;10.43;;;8.97;;
6679;SDS011;3376;42.664;23.346;2024-02-28T12:05:47;9.40;;;8.57;;
6679;SDS011;3376;42.664;23.346;2024-02-28T12:09:13;8.83;;;8.17;;
6679;SDS011;3376;42.664;23.346;2024-02-28T12:12:39;7.03;;;6.50;;
6679;SDS011;3376;42.664;23.346;2024-02-28T12:16:04;7.33;;;6.70;;
6679;SDS011;3376;42.664;23.346;2024-02-28T12:19:30;9.67;;;6.90;;
6679;SDS011;3376;42.664;23.346;2024-02-28T12:22:57;7.37;;;6.93;;
6679;SDS011;3376;42.664;23.346;2024-02-28T12:26:23;8.00;;;7.23;;
6679;SDS011;3376;42.664;23.346;2024-02-28T12:29:48;9.82;;;8.63;;
6679;SDS011;3376;42.664;23.346;2024-02-28T12:33:14;10.50;;;9.70;;
6679;SDS011;3376;42.664;23.346;2024-02-28T12:36:40;9.40;;;8.50;;
6679;SDS011;3376;42.664;23.346;2024-02-28T12:40:07;12.90;;;8.67;;
6679;SDS011;3376;42.664;23.346;2024-02-28T12:43:33;9.83;;;8.90;;
6679;SDS011;3376;42.664;23.346;2024-02-28T12:46:58;10.40;;;9.40;;
6679;SDS011;3376;42.664;23.346;2024-02-28T12:50:26;8.73;;;8.07;;
6679;SDS011;3376;42.664;23.346;2024-02-28T12:54:02;10.53;;;8.43;;
6679;SDS011;3376;42.664;23.346;2024-02-28T12:57:30;8.67;;;7.97;;
6679;SDS011;3376;42.664;23.346;2024-02-28T13:00:55;11.47;;;8.67;;
6679;SDS011;3376;42.664;23.346;2024-02-28T13:04:20;8.43;;;8.00;;
6679;SDS011;3376;42.664;23.346;2024-02-28T13:07:46;8.53;;;7.80;;
6679;SDS011;3376;42.664;23.346;2024-02-28T13:11:16;9.07;;;7.70;;
6679;SDS011;3376;42.664;23.346;2024-02-28T13:14:44;7.70;;;6.90;;
6679;SDS011;3376;42.664;23.346;2024-02-28T13:18:11;6.83;;;6.27;;
6679;SDS011;3376;42.664;23.346;2024-02-28T13:21:37;9.30;;;6.93;;
6679;SDS011;3376;42.664;23.346;2024-02-28T13:25:02;7.23;;;6.70;;
6679;SDS011;3376;42.664;23.346;2024-02-28T13:28:28;10.43;;;7.03;;
6679;SDS011;3376;42.664;23.346;2024-02-28T13:31:55;7.47;;;6.77;;
6679;SDS011;3376;42.664;23.346;2024-02-28T13:35:22;7.80;;;6.93;;
6679;SDS011;3376;42.664;23.346;2024-02-28T13:38:47;9.87;;;7.90;;
6679;SDS011;3376;42.664;23.346;2024-02-28T13:42:12;8.13;;;6.73;;
6679;SDS011;3376;42.664;23.346;2024-02-28T13:45:38;8.83;;;7.07;;
6679;SDS011;3376;42.664;23.346;2024-02-28T13:49:07;6.07;;;5.73;;
6679;SDS011;3376;42.664;23.346;2024-02-28T13:52:34;6.47;;;5.87;;
6679;SDS011;3376;42.664;23.346;2024-02-28T13:56:00;6.73;;;6.30;;
6679;SDS011;3376;42.664;23.346;2024-02-28T13:59:26;8.10;;;6.07;;
6679;SDS011;3376;42.664;23.346;2024-02-28T14:02:52;6.53;;;5.90;;
6679;SDS011;3376;42.664;23.346;2024-02-28T14:06:19;6.77;;;5.73;;
6679;SDS011;3376;42.664;23.346;2024-02-28T14:09:44;6.90;;;6.40;;
6679;SDS011;3376;42.664;23.346;2024-02-28T14:13:10;8.47;;;6.80;;
6679;SDS011;3376;42.664;23.346;2024-02-28T14:16:37;10.80;;;6.53;;
6679;SDS011;3376;42.664;23.346;2024-02-28T14:20:03;7.30;;;6.60;;
6679;SDS011;3376;42.664;23.346;2024-02-28T14:23:30;8.90;;;6.73;;
6679;SDS011;3376;42.664;23.346;2024-02-28T14:26:55;6.33;;;5.93;;
6679;SDS011;3376;42.664;23.346;2024-02-28T14:30:21;8.23;;;6.47;;
6679;SDS011;3376;42.664;23.346;2024-02-28T14:33:46;14.43;;;7.60;;
6679;SDS011;3376;42.664;23.346;2024-02-28T14:37:14;10.40;;;7.17;;
6679;SDS011;3376;42.664;23.346;2024-02-28T14:40:41;8.03;;;7.30;;
6679;SDS011;3376;42.664;23.346;2024-02-28T14:44:09;8.23;;;7.50;;
6679;SDS011;3376;42.664;23.346;2024-02-28T14:47:35;8.60;;;7.57;;
6679;SDS011;3376;42.664;23.346;2024-02-28T14:51:01;7.73;;;7.03;;
6679;SDS011;3376;42.664;23.346;2024-02-28T14:54:28;8.27;;;7.50;;
6679;SDS011;3376;42.664;23.346;2024-02-28T14:57:55;14.63;;;7.70;;
6679;SDS011;3376;42.664;23.346;2024-02-28T15:01:20;15.73;;;7.90;;
6679;SDS011;3376;42.664;23.346;2024-02-28T15:04:46;12.37;;;10.00;;
6679;SDS011;3376;42.664;23.346;2024-02-28T15:08:12;10.20;;;7.97;;
6679;SDS011;3376;42.664;23.346;2024-02-28T15:11:38;8.27;;;7.47;;
6679;SDS011;3376;42.664;23.346;2024-02-28T15:15:07;8.00;;;7.00;;
6679;SDS011;3376;42.664;23.346;2024-02-28T15:18:33;7.77;;;7.07;;
6679;SDS011;3376;42.664;23.346;2024-02-28T15:21:58;9.23;;;8.33;;
6679;SDS011;3376;42.664;23.346;2024-02-28T15:25:24;10.33;;;7.90;;
6679;SDS011;3376;42.664;23.346;2024-02-28T15:28:50;12.40;;;8.77;;
6679;SDS011;3376;42.664;23.346;2024-02-28T15:32:17;9.43;;;8.43;;
6679;SDS011;3376;42.664;23.346;2024-02-28T15:35:42;9.57;;;7.33;;
6679;SDS011;3376;42.664;23.346;2024-02-28T15:39:07;8.60;;;7.77;;
6679;SDS011;3376;42.664;23.346;2024-02-28T15:42:33;12.13;;;7.40;;
6679;SDS011;3376;42.664;23.346;2024-02-28T15:46:00;19.47;;;13.07;;
6679;SDS011;3376;42.664;23.346;2024-02-28T15:49:27;9.30;;;8.00;;
6679;SDS011;3376;42.664;23.346;2024-02-28T15:52:53;22.63;;;9.07;;
6679;SDS011;3376;42.664;23.346;2024-02-28T15:56:20;11.90;;;8.67;;
6679;SDS011;3376;42.664;23.346;2024-02-28T15:59:45;8.97;;;8.23;;
6679;SDS011;3376;42.664;23.346;2024-02-28T16:03:11;11.07;;;8.37;;
6679;SDS011;3376;42.664;23.346;2024-02-28T16:06:38;15.03;;;9.13;;
6679;SDS011;3376;42.664;23.346;2024-02-28T16:10:06;12.93;;;8.77;;
6679;SDS011;3376;42.664;23.346;2024-02-28T16:13:32;10.87;;;8.53;;
6679;SDS011;3376;42.664;23.346;2024-02-28T16:16:57;11.43;;;8.63;;
6679;SDS011;3376;42.664;23.346;2024-02-28T16:20:23;8.03;;;7.43;;
6679;SDS011;3376;42.664;23.346;2024-02-28T16:23:50;10.37;;;7.27;;
6679;SDS011;3376;42.664;23.346;2024-02-28T16:27:16;7.57;;;6.87;;
6679;SDS011;3376;42.664;23.346;2024-02-28T16:30:41;12.93;;;7.27;;
6679;SDS011;3376;42.664;23.346;2024-02-28T16:34:08;7.43;;;6.67;;
6679;SDS011;3376;42.664;23.346;2024-02-28T16:37:34;8.03;;;7.37;;
6679;SDS011;3376;42.664;23.346;2024-02-28T16:41:00;9.10;;;6.87;;
6679;SDS011;3376;42.664;23.346;2024-02-28T16:44:28;7.40;;;6.80;;
6679;SDS011;3376;42.664;23.346;2024-02-28T16:47:54;11.30;;;6.93;;
6679;SDS011;3376;42.664;23.346;2024-02-28T16:51:19;8.97;;;6.80;;
6679;SDS011;3376;42.664;23.346;2024-02-28T16:54:45;7.73;;;7.13;;
6679;SDS011;3376;42.664;23.346;2024-02-28T16:58:12;7.13;;;6.47;;
6679;SDS011;3376;42.664;23.346;2024-02-28T17:01:38;6.90;;;6.23;;
6679;SDS011;3376;42.664;23.346;2024-02-28T17:05:04;7.13;;;6.43;;
6679;SDS011;3376;42.664;23.346;2024-02-28T17:08:30;6.90;;;6.40;;
6679;SDS011;3376;42.664;23.346;2024-02-28T17:11:55;7.23;;;5.63;;
6679;SDS011;3376;42.664;23.346;2024-02-28T17:15:22;6.87;;;5.10;;
6679;SDS011;3376;42.664;23.346;2024-02-28T17:18:48;8.27;;;5.00;;
6679;SDS011;3376;42.664;23.346;2024-02-28T17:22:14;6.37;;;4.90;;
6679;SDS011;3376;42.664;23.346;2024-02-28T17:25:39;5.20;;;4.70;;
6679;SDS011;3376;42.664;23.346;2024-02-28T17:29:05;7.80;;;5.50;;
6679;SDS011;3376;42.664;23.346;2024-02-28T17:32:34;5.50;;;5.03;;
6679;SDS011;3376;42.664;23.346;2024-02-28T17:36:00;6.53;;;4.20;;
6679;SDS011;3376;42.664;23.346;2024-02-28T17:39:27;7.20;;;3.90;;
6679;SDS011;3376;42.664;23.346;2024-02-28T17:42:52;3.93;;;3.63;;
6679;SDS011;3376;42.664;23.346;2024-02-28T17:46:18;7.17;;;4.97;;
6679;SDS011;3376;42.664;23.346;2024-02-28T17:49:44;8.13;;;6.80;;
6679;SDS011;3376;42.664;23.346;2024-02-28T17:53:10;14.83;;;10.13;;
6679;SDS011;3376;42.664;23.346;2024-02-28T17:56:35;14.03;;;11.23;;
6679;SDS011;3376;42.664;23.346;2024-02-28T18:00:01;11.53;;;7.70;;
6679;SDS011;3376;42.664;23.346;2024-02-28T18:03:30;12.77;;;9.07;;
6679;SDS011;3376;42.664;23.346;2024-02-28T18:06:57;7.90;;;6.50;;
6679;SDS011;3376;42.664;23.346;2024-02-28T18:10:24;8.10;;;6.87;;
6679;SDS011;3376;42.664;23.346;2024-02-28T18:13:52;7.00;;;6.47;;
6679;SDS011;3376;42.664;23.346;2024-02-28T18:17:18;10.47;;;6.40;;
6679;SDS011;3376;42.664;23.346;2024-02-28T18:20:43;9.67;;;6.73;;
6679;SDS011;3376;42.664;23.346;2024-02-28T18:24:10;12.83;;;8.93;;
6679;SDS011;3376;42.664;23.346;2024-02-28T18:27:36;6.17;;;5.47;;
6679;SDS011;3376;42.664;23.346;2024-02-28T18:31:03;5.77;;;5.33;;
6679;SDS011;3376;42.664;23.346;2024-02-28T18:34:28;17.80;;;12.40;;
6679;SDS011;3376;42.664;23.346;2024-02-28T18:37:56;13.37;;;8.83;;
6679;SDS011;3376;42.664;23.346;2024-02-28T18:41:23;9.53;;;6.50;;
6679;SDS011;3376;42.664;23.346;2024-02-28T18:44:52;9.33;;;8.40;;
6679;SDS011;3376;42.664;23.346;2024-02-28T18:48:18;8.77;;;7.57;;
6679;SDS011;3376;42.664;23.346;2024-02-28T18:51:44;6.93;;;6.33;;
6679;SDS011;3376;42.664;23.346;2024-02-28T18:55:09;7.00;;;6.17;;
6679;SDS011;3376;42.664;23.346;2024-02-28T18:58:36;6.37;;;5.87;;
6679;SDS011;3376;42.664;23.346;2024-02-28T19:02:02;6.83;;;5.33;;
6679;SDS011;3376;42.664;23.346;2024-02-28T19:05:28;9.73;;;5.93;;
6679;SDS011;3376;42.664;23.346;2024-02-28T19:08:53;6.60;;;5.57;;
6679;SDS011;3376;42.664;23.346;2024-02-28T19:12:19;7.33;;;6.40;;
6679;SDS011;3376;42.664;23.346;2024-02-28T19:15:46;8.03;;;6.93;;
6679;SDS011;3376;42.664;23.346;2024-02-28T19:19:11;13.17;;;9.70;;
6679;SDS011;3376;42.664;23.346;2024-02-28T19:22:37;7.50;;;6.80;;
6679;SDS011;3376;42.664;23.346;2024-02-28T19:26:05;7.73;;;6.17;;
6679;SDS011;3376;42.664;23.346;2024-02-28T20:29:32;9.13;;;8.33;;
6679;SDS011;3376;42.664;23.346;2024-02-28T20:32:58;8.90;;;6.80;;
6679;SDS011;3376;42.664;23.346;2024-02-28T20:39:51;7.23;;;6.60;;
6679;SDS011;3376;42.664;23.346;2024-02-28T20:43:16;11.73;;;7.50;;
6679;SDS011;3376;42.664;23.346;2024-02-28T20:46:43;13.97;;;9.33;;
6679;SDS011;3376;42.664;23.346;2024-02-28T20:50:09;12.10;;;7.70;;
6679;SDS011;3376;42.664;23.346;2024-02-28T20:53:34;9.70;;;7.97;;
6679;SDS011;3376;42.664;23.346;2024-02-28T20:57:00;8.63;;;7.83;;
6679;SDS011;3376;42.664;23.346;2024-02-28T21:00:25;11.33;;;9.07;;
6679;SDS011;3376;42.664;23.346;2024-02-28T21:03:53;12.13;;;11.00;;
6679;SDS011;3376;42.664;23.346;2024-02-28T21:07:21;12.40;;;7.70;;
6679;SDS011;3376;42.664;23.346;2024-02-28T21:10:46;16.07;;;11.30;;
6679;SDS011;3376;42.664;23.346;2024-02-28T21:14:12;9.57;;;8.70;;
6679;SDS011;3376;42.664;23.346;2024-02-28T21:17:39;11.60;;;7.87;;
6679;SDS011;3376;42.664;23.346;2024-02-28T21:21:06;9.97;;;9.03;;
6679;SDS011;3376;42.664;23.346;2024-02-28T21:24:31;7.80;;;7.10;;
6679;SDS011;3376;42.664;23.346;2024-02-28T21:27:57;10.17;;;7.10;;
6679;SDS011;3376;42.664;23.346;2024-02-28T21:31:22;7.93;;;7.13;;
6679;SDS011;3376;42.664;23.346;2024-02-28T21:34:48;8.90;;;8.20;;
6679;SDS011;3376;42.664;23.346;2024-02-28T21:38:15;9.67;;;8.63;;